Terminal Aerodrome Forecast
Issued by NWS Duluth, MN

Home | Current Version | Previous Version | Text Only | Print | Product List | Glossary On
Versions: 1 2 3 4 5 6 7 8 9 10 11 12 13 14 15 16 17 18 19 20 21 22 23
000
FTUS43 KDLH 231100 AAA
TAFINL
TAF AMD
KINL 231126Z 2311/2406 20007KT 6SM BR OVC004
      TEMPO 2312/2314 BKN008
     FM231400 22009KT P6SM SKC
     FM240000 19004KT P6SM SKC=

USA.gov is the U.S. government's official web portal to all federal, state and local government web resources and services.